LOG96LP EGPE-EGPO

Flight info

Callsign LOG96LP
Flight time 0h 25m
Altitude 14000
Route GARVA Y906 STN
Aircraft E145/M-SABDFGRW/S

Departure

Time 2026-04-17 22:23
Airport Inverness Airport (EGPE)

Arrival

Time 2026-04-17 22:48
Airport Stornoway Airport (EGPO)
Time Latitude Longitude Altitude Speed Heading
2026-04-17 22:12 57.54004 -4.06254 36 ft 0 kts 275°
2026-04-17 22:17 57.54005 -4.06254 36 ft 0 kts 275°
2026-04-17 22:18 57.54004 -4.06254 37 ft 0 kts 274°
2026-04-17 22:18 57.53999 -4.06261 37 ft 2 kts 188°
2026-04-17 22:18 57.53953 -4.06200 35 ft 11 kts 135°
2026-04-17 22:18 57.53870 -4.06177 35 ft 13 kts 185°
2026-04-17 22:19 57.53773 -4.06149 33 ft 16 kts 128°
2026-04-17 22:19 57.53711 -4.05952 30 ft 18 kts 87°
2026-04-17 22:19 57.53794 -4.05743 28 ft 21 kts 49°
2026-04-17 22:19 57.53897 -4.05520 28 ft 23 kts 47°
2026-04-17 22:20 57.54010 -4.05273 25 ft 26 kts 49°
2026-04-17 22:20 57.54133 -4.05007 25 ft 27 kts 49°
2026-04-17 22:20 57.54261 -4.04728 24 ft 29 kts 50°
2026-04-17 22:20 57.54401 -4.04425 21 ft 31 kts 49°
2026-04-17 22:21 57.54544 -4.04112 21 ft 32 kts 50°
2026-04-17 22:21 57.54676 -4.03827 21 ft 25 kts 49°
2026-04-17 22:21 57.54757 -4.03667 21 ft 8 kts 44°
2026-04-17 22:21 57.54780 -4.03607 21 ft 1 kts 152°
2026-04-17 22:22 57.54772 -4.03620 21 ft 0 kts 228°
2026-04-17 22:22 57.54720 -4.03732 21 ft 44 kts 229°
2026-04-17 22:22 57.54356 -4.04525 22 ft 114 kts 229°
2026-04-17 22:22 57.53770 -4.05809 283 ft 133 kts 229°
2026-04-17 22:23 57.53161 -4.07190 754 ft 146 kts 229°
2026-04-17 22:23 57.52512 -4.08706 1261 ft 157 kts 229°
2026-04-17 22:23 57.51820 -4.10372 1759 ft 168 kts 230°
2026-04-17 22:23 57.51490 -4.12512 2205 ft 189 kts 269°
2026-04-17 22:24 57.51832 -4.14950 2661 ft 196 kts 286°
2026-04-17 22:24 57.52481 -4.17245 2959 ft 213 kts 295°
2026-04-17 22:24 57.53288 -4.19549 3237 ft 214 kts 298°
2026-04-17 22:24 57.54165 -4.21902 3622 ft 236 kts 298°
2026-04-17 22:25 57.55152 -4.24491 4009 ft 251 kts 299°
2026-04-17 22:25 57.56206 -4.27234 4431 ft 259 kts 300°
2026-04-17 22:25 57.57238 -4.29920 5091 ft 256 kts 298°
2026-04-17 22:25 57.58266 -4.32604 5708 ft 255 kts 298°
2026-04-17 22:26 57.59301 -4.35307 6265 ft 257 kts 298°
2026-04-17 22:26 57.60347 -4.38045 6831 ft 258 kts 298°
2026-04-17 22:26 57.61377 -4.40741 7388 ft 258 kts 298°
2026-04-17 22:26 57.62429 -4.43497 7958 ft 259 kts 298°
2026-04-17 22:27 57.63469 -4.46228 8515 ft 259 kts 298°
2026-04-17 22:27 57.64506 -4.48951 9072 ft 259 kts 298°
2026-04-17 22:27 57.65554 -4.51707 9635 ft 259 kts 298°
2026-04-17 22:27 57.66616 -4.54511 10084 ft 271 kts 298°
2026-04-17 22:28 57.67737 -4.57467 10379 ft 288 kts 300°
2026-04-17 22:28 57.68926 -4.60603 10677 ft 303 kts 300°
2026-04-17 22:28 57.70154 -4.63849 11000 ft 315 kts 300°
2026-04-17 22:28 57.71444 -4.67260 11455 ft 322 kts 299°
2026-04-17 22:29 57.72758 -4.70743 11905 ft 329 kts 299°
2026-04-17 22:29 57.74073 -4.74233 12361 ft 334 kts 300°
2026-04-17 22:29 57.75413 -4.77794 12881 ft 336 kts 300°
2026-04-17 22:29 57.76760 -4.81381 13399 ft 338 kts 300°
2026-04-17 22:30 57.78128 -4.85030 13745 ft 342 kts 300°
2026-04-17 22:30 57.79502 -4.88698 13762 ft 343 kts 300°
2026-04-17 22:30 57.80864 -4.92340 13765 ft 344 kts 300°
2026-04-17 22:30 57.82254 -4.96062 13771 ft 345 kts 300°
2026-04-17 22:31 57.83633 -4.99762 13778 ft 344 kts 300°
2026-04-17 22:31 57.84975 -5.03360 13400 ft 335 kts 300°
2026-04-17 22:31 57.86296 -5.06912 12898 ft 325 kts 299°
2026-04-17 22:31 57.87580 -5.10374 12359 ft 320 kts 299°
2026-04-17 22:32 57.88822 -5.13725 11822 ft 313 kts 299°
2026-04-17 22:32 57.90064 -5.17057 11280 ft 308 kts 301°
2026-04-17 22:32 57.91389 -5.20171 10736 ft 299 kts 294°
2026-04-17 22:32 57.92268 -5.23636 10251 ft 290 kts 290°
2026-04-17 22:33 57.93201 -5.26994 9772 ft 288 kts 292°
2026-04-17 22:33 57.94160 -5.30265 9293 ft 287 kts 292°
2026-04-17 22:33 57.95128 -5.33487 8846 ft 285 kts 293°
2026-04-17 22:33 57.96110 -5.36716 8548 ft 283 kts 293°
2026-04-17 22:34 57.97091 -5.39933 8249 ft 283 kts 293°
2026-04-17 22:34 57.98071 -5.43143 7953 ft 284 kts 293°
2026-04-17 22:34 57.99041 -5.46314 7656 ft 277 kts 292°
2026-04-17 22:34 57.99988 -5.49411 7398 ft 266 kts 292°
2026-04-17 22:35 58.00898 -5.52399 7187 ft 260 kts 292°
2026-04-17 22:35 58.01799 -5.55368 6985 ft 259 kts 292°
2026-04-17 22:35 58.02688 -5.58292 6796 ft 257 kts 291°
2026-04-17 22:35 58.03574 -5.61207 6751 ft 251 kts 291°
2026-04-17 22:36 58.04429 -5.64027 6757 ft 248 kts 291°
2026-04-17 22:36 58.05294 -5.66883 6765 ft 247 kts 291°
2026-04-17 22:36 58.06144 -5.69690 6753 ft 246 kts 291°
2026-04-17 22:36 58.06994 -5.72502 6751 ft 244 kts 291°
2026-04-17 22:37 58.07834 -5.75286 6753 ft 243 kts 291°
2026-04-17 22:37 58.08671 -5.78062 6743 ft 242 kts 291°
2026-04-17 22:37 58.09513 -5.80856 6744 ft 241 kts 290°
2026-04-17 22:37 58.10344 -5.83617 6739 ft 241 kts 291°
2026-04-17 22:38 58.11169 -5.86367 6722 ft 240 kts 291°
2026-04-17 22:38 58.11994 -5.89113 6708 ft 239 kts 291°
2026-04-17 22:38 58.12811 -5.91838 6706 ft 238 kts 291°
2026-04-17 22:38 58.13618 -5.94534 6712 ft 237 kts 290°
2026-04-17 22:39 58.14433 -5.97260 6708 ft 236 kts 290°
2026-04-17 22:39 58.15245 -5.99977 6414 ft 239 kts 290°
2026-04-17 22:39 58.16884 -6.05474 5428 ft 244 kts 290°
2026-04-17 22:40 58.17708 -6.08238 4982 ft 241 kts 290°
2026-04-17 22:40 58.18528 -6.10998 4578 ft 241 kts 290°
2026-04-17 22:40 58.19348 -6.13759 4258 ft 239 kts 290°
2026-04-17 22:40 58.20170 -6.16497 3967 ft 236 kts 290°
2026-04-17 22:41 58.21122 -6.19017 3674 ft 243 kts 307°
2026-04-17 22:41 58.22549 -6.20877 3429 ft 250 kts 328°
2026-04-17 22:41 58.24116 -6.22204 3246 ft 245 kts 328°
2026-04-17 22:41 58.25789 -6.23049 3064 ft 255 kts 349°
2026-04-17 22:42 58.27556 -6.23362 3000 ft 253 kts 349°
2026-04-17 22:42 58.29310 -6.23675 2997 ft 251 kts 349°
2026-04-17 22:42 58.31069 -6.23982 3005 ft 253 kts 349°
2026-04-17 22:42 58.32805 -6.24285 2945 ft 251 kts 349°
2026-04-17 22:43 58.34524 -6.24655 2832 ft 245 kts 343°
2026-04-17 22:43 58.35950 -6.25993 2742 ft 219 kts 303°
2026-04-17 22:43 58.36571 -6.28351 2662 ft 185 kts 263°
2026-04-17 22:43 58.36295 -6.30545 2641 ft 168 kts 240°
2026-04-17 22:44 58.35804 -6.32613 2499 ft 171 kts 239°
2026-04-17 22:44 58.35318 -6.34682 2390 ft 173 kts 239°
2026-04-17 22:44 58.34642 -6.36515 2273 ft 167 kts 212°
2026-04-17 22:44 58.33637 -6.36776 2183 ft 149 kts 169°
2026-04-17 22:45 58.32758 -6.35499 2096 ft 160 kts 154°
2026-04-17 22:45 58.31750 -6.34993 2009 ft 149 kts 184°
2026-04-17 22:45 58.30699 -6.34850 1905 ft 152 kts 180°
2026-04-17 22:45 58.29704 -6.34649 1690 ft 145 kts 180°
2026-04-17 22:46 58.28668 -6.34461 1472 ft 152 kts 179°
2026-04-17 22:46 58.27605 -6.34250 1236 ft 149 kts 179°
2026-04-17 22:46 58.26643 -6.34071 991 ft 133 kts 180°
2026-04-17 22:46 58.25746 -6.33901 679 ft 127 kts 180°
2026-04-17 22:47 58.24854 -6.33719 496 ft 130 kts 180°
2026-04-17 22:47 58.23942 -6.33555 369 ft 135 kts 179°
2026-04-17 22:47 58.23045 -6.33371 182 ft 126 kts 179°
2026-04-17 22:47 58.22144 -6.33211 19 ft 126 kts 179°
2026-04-17 22:48 58.21460 -6.33088 14 ft 66 kts 175°
2026-04-17 22:48 58.21201 -6.33017 15 ft 14 kts 160°
2026-04-17 22:48 58.21194 -6.33038 15 ft 5 kts 343°
2026-04-17 22:48 58.21275 -6.33053 14 ft 17 kts 354°
2026-04-17 22:49 58.21407 -6.32975 11 ft 24 kts 59°
2026-04-17 22:49 58.21492 -6.32703 15 ft 21 kts 61°
2026-04-17 22:49 58.21523 -6.32531 18 ft 10 kts 133°
2026-04-17 22:49 58.21468 -6.32463 19 ft 9 kts 150°
2026-04-17 22:50 58.21452 -6.32377 20 ft 8 kts 72°
2026-04-17 22:50 58.21463 -6.32260 23 ft 9 kts 83°
2026-04-17 22:50 58.21469 -6.32144 26 ft 5 kts 89°
2026-04-17 22:50 58.21450 -6.32114 27 ft 4 kts 180°
2026-04-17 22:51 58.21426 -6.32161 26 ft 4 kts 277°
2026-04-17 22:51 58.21425 -6.32171 26 ft 0 kts 265°